Main page
Satellite images 15-day forecastsClimateMarine weather Cyclones Lightning AirportsFAQ Newsletter About
Weather : Europe Africa North America South America Asia Australia-Oceania Others
Languages Contact

Bucharest, Romania

Henri Coandă

latitude: 44-33N, longitude: 026-06E, elevation: 95 m


METAR: LROP 012300Z 01005KT CAVOK 18/13 Q1010 NOSIG
short-TAF: out of date (33286 hours)
long-TAF: LROP 011700Z 0118/0218 04007KT CAVOK

Time: 02:22 (23:22 UTC)

Current weather observation

The report was made 22 minutes ago, at 23:00 UTC  
Wind 05 kt from the North
Temperature 18°C
Humidity 73%
Pressure 1010 hPa
Visibility 10 km or more
no clouds below 1500 m and no cumulonimbus

Change units

Forecast

The report was made 5 hours and 49 minutes ago, at 17:33 UTC  
Forecast valid from 01 at 18 UTC to 02 at 18 UTC
Wind 07 kt from the Northeast
Visibility 10 km or more
no clouds below 1500 m and no cumulonimbus
The information on this site is subject to a disclaimer
Weather : Europe Africa North America South America Asia Australia-Oceania Others
Satellite images 15-day forecastsClimateMarine weather Cyclones Lightning AirportsFAQ Languages Contact Newsletter About